Time;durP1;ratioP1;P1;durP2;ratioP2;P2;SDS_P1;SDS_P2;PMS_P1;PMS_P2;Temp;Humidity;BMP_temperature;BMP_pressure;BME280_temperature;BME280_humidity;BME280_pressure;Samples;Min_cycle;Max_cycle;Signal;HPM_P1;HPM_P2
2023/05/23 00:01:44;;;;;;;12.67;5.10;;;;;;;14.24;83.37;100081.69;1467449;87;22254;-83
2023/05/23 00:04:15;;;;;;;11.37;6.17;;;;;;;14.23;83.37;100092.02;1483162;87;22445;-82
2023/05/23 00:06:38;;;;;;;13.17;6.17;;;;;;;14.22;83.01;100095.70;1481331;87;22452;-83
2023/05/23 00:09:04;;;;;;;12.27;5.10;;;;;;;14.20;82.85;100094.53;1489324;87;21625;-83
2023/05/23 00:11:31;;;;;;;6.97;5.30;;;;;;;14.16;83.01;100100.41;1490493;87;21425;-84
2023/05/23 00:13:59;;;;;;;8.10;4.73;;;;;;;14.10;82.74;100097.14;1493177;87;22319;-83
2023/05/23 00:16:25;;;;;;;11.63;5.67;;;;;;;14.03;82.18;100094.85;1487509;87;21521;-84
2023/05/23 00:18:52;;;;;;;10.13;5.30;;;;;;;13.99;82.47;100094.39;1489406;87;22859;-85
2023/05/23 00:21:19;;;;;;;7.63;4.80;;;;;;;13.96;82.54;100092.91;1490343;87;21462;-85
2023/05/23 00:23:45;;;;;;;10.23;4.47;;;;;;;13.92;82.43;100090.26;1484621;87;22276;-83
2023/05/23 00:26:12;;;;;;;10.77;5.43;;;;;;;13.93;82.11;100090.61;1491478;87;21654;-83
2023/05/23 00:28:39;;;;;;;10.50;5.00;;;;;;;13.93;82.19;100094.59;1484290;87;21374;-84
2023/05/23 00:31:06;;;;;;;12.13;4.83;;;;;;;13.94;81.87;100091.42;1467343;87;21484;-84
2023/05/23 00:33:33;;;;;;;11.67;5.10;;;;;;;13.92;81.82;100090.26;1482704;87;21591;-84
2023/05/23 00:36:02;;;;;;;7.97;5.40;;;;;;;13.86;81.64;100089.64;1434085;89;21465;-86
2023/05/23 00:38:28;;;;;;;8.43;5.33;;;;;;;13.80;81.93;100087.70;1462943;89;21360;-86
2023/05/23 00:40:54;;;;;;;8.37;4.07;;;;;;;13.77;81.45;100088.88;1441708;91;21361;-86
2023/05/23 00:43:21;;;;;;;20.03;4.77;;;;;;;13.74;81.65;100085.23;1463726;89;21479;-85
2023/05/23 00:45:48;;;;;;;7.43;4.80;;;;;;;13.74;82.45;100086.56;1438984;91;22285;-84
2023/05/23 00:48:15;;;;;;;10.43;4.73;;;;;;;13.73;82.43;100086.76;1456421;89;21427;-85
2023/05/23 00:50:42;;;;;;;13.67;5.10;;;;;;;13.73;82.24;100081.44;1437742;91;21412;-84
2023/05/23 00:53:08;;;;;;;11.07;5.13;;;;;;;13.72;81.93;100095.25;1459947;89;21504;-84
2023/05/23 00:55:35;;;;;;;9.13;5.47;;;;;;;13.68;82.10;100093.10;1433741;91;21501;-84
2023/05/23 00:58:01;;;;;;;13.50;5.47;;;;;;;13.64;81.58;100091.81;1487790;87;22481;-85
2023/05/23 01:00:29;;;;;;;7.63;5.00;;;;;;;13.59;81.17;100095.48;1487905;87;21402;-84
2023/05/23 01:02:55;;;;;;;9.27;5.37;;;;;;;13.53;81.28;100100.50;1485996;87;21390;-84
2023/05/23 01:05:21;;;;;;;10.53;5.00;;;;;;;13.48;81.33;100098.85;1508182;87;21492;-79
2023/05/23 01:07:50;;;;;;;6.83;4.70;;;;;;;13.42;81.98;100100.06;1501271;87;21470;-83
2023/05/23 01:10:24;;;;;;;8.57;5.33;;;;;;;13.36;82.06;100097.59;1486566;87;21338;-85
2023/05/23 01:13:18;;;;;;;6.90;4.37;;;;;;;13.35;82.35;100099.94;1483691;87;21614;-85
2023/05/23 01:16:05;;;;;;;9.07;4.57;;;;;;;13.34;83.33;100096.94;1486714;87;21432;-85
2023/05/23 01:18:56;;;;;;;6.03;4.67;;;;;;;13.33;83.46;100091.30;1486478;87;21528;-82
2023/05/23 01:21:24;;;;;;;9.27;5.23;;;;;;;13.33;83.74;100093.95;1489732;87;21480;-85
2023/05/23 01:24:13;;;;;;;8.53;5.57;;;;;;;13.31;83.72;100094.12;1483684;87;21546;-86
2023/05/23 01:26:57;;;;;;;8.30;4.80;;;;;;;13.27;83.22;100092.00;1483853;87;21507;-85
2023/05/23 01:29:29;;;;;;;18.80;5.10;;;;;;;13.23;83.46;100089.31;1468247;87;21411;-87
2023/05/23 01:31:58;;;;;;;12.53;5.57;;;;;;;13.18;83.70;100089.02;1495560;87;21374;-88
2023/05/23 01:34:25;;;;;;;10.20;4.90;;;;;;;13.12;84.14;100093.67;1481878;87;21554;-87
2023/05/23 01:36:56;;;;;;;11.10;6.63;;;;;;;13.07;84.96;100087.05;1488226;87;22254;-88
2023/05/23 01:39:23;;;;;;;12.10;4.63;;;;;;;13.06;85.37;100089.40;1481131;87;21300;-87
2023/05/23 01:41:52;;;;;;;6.33;4.77;;;;;;;13.05;85.11;100087.72;1486292;87;21456;-87
2023/05/23 01:44:19;;;;;;;7.27;4.90;;;;;;;13.06;85.20;100089.88;1499561;87;21396;-87
2023/05/23 01:46:46;;;;;;;13.17;5.20;;;;;;;13.08;85.02;100086.55;1494985;87;21418;-87
2023/05/23 01:49:15;;;;;;;7.97;5.07;;;;;;;13.07;84.86;100092.38;1470979;87;21380;-86
2023/05/23 01:51:42;;;;;;;7.67;5.03;;;;;;;13.05;84.61;100098.34;1485303;87;21558;-86
2023/05/23 01:54:09;;;;;;;10.27;4.87;;;;;;;13.01;84.76;100086.42;1479632;87;22335;-87
2023/05/23 01:56:35;;;;;;;9.57;5.43;;;;;;;12.99;84.87;100093.72;1478630;87;22963;-86
2023/05/23 01:59:03;;;;;;;9.33;5.20;;;;;;;12.95;85.26;100095.08;1487562;87;21389;-86
2023/05/23 02:01:30;;;;;;;12.67;5.07;;;;;;;12.88;86.15;100088.78;1489077;87;21522;-87
2023/05/23 02:03:56;;;;;;;10.33;5.77;;;;;;;12.83;85.55;100093.29;1493561;87;21830;-89
2023/05/23 02:06:22;;;;;;;7.33;4.80;;;;;;;12.81;85.96;100102.42;1459913;87;21381;-84
2023/05/23 02:08:48;;;;;;;8.00;5.70;;;;;;;12.80;85.97;100103.40;1465737;87;22282;-85
2023/05/23 02:11:14;;;;;;;7.23;4.50;;;;;;;12.80;85.58;100106.06;1483882;87;21314;-85
2023/05/23 02:13:41;;;;;;;6.83;4.70;;;;;;;12.78;86.22;100104.92;1480486;87;21529;-85
2023/05/23 02:16:07;;;;;;;9.97;5.43;;;;;;;12.70;86.86;100102.78;1484110;87;21678;-86
2023/05/23 02:18:36;;;;;;;13.13;5.63;;;;;;;12.64;87.83;100101.13;1493475;87;21352;-84
2023/05/23 02:21:02;;;;;;;9.13;4.33;;;;;;;12.61;87.62;100095.33;1489816;87;21476;-83
2023/05/23 02:23:28;;;;;;;7.57;4.27;;;;;;;12.59;88.23;100102.12;1482019;87;21337;-83
2023/05/23 02:25:54;;;;;;;11.60;5.40;;;;;;;12.58;89.17;100103.12;1482295;87;21500;-85
2023/05/23 02:28:22;;;;;;;9.70;4.97;;;;;;;12.50;89.83;100103.13;1489228;87;22384;-86
2023/05/23 02:30:49;;;;;;;6.07;4.90;;;;;;;12.40;89.53;100099.34;1481372;87;22186;-87
2023/05/23 02:33:15;;;;;;;7.40;5.63;;;;;;;12.36;89.31;100096.67;1480131;87;21343;-86
2023/05/23 02:35:41;;;;;;;7.57;5.00;;;;;;;12.34;89.28;100096.51;1484412;87;21522;-85
2023/05/23 02:38:08;;;;;;;12.23;5.20;;;;;;;12.33;89.89;100096.19;1485241;87;22305;-85
2023/05/23 02:40:34;;;;;;;8.17;5.10;;;;;;;12.32;89.65;100098.52;1490934;87;21418;-87
2023/05/23 02:43:00;;;;;;;8.20;5.30;;;;;;;12.28;89.88;100094.02;1487753;87;21359;-87
2023/05/23 02:45:26;;;;;;;5.37;4.63;;;;;;;12.24;90.94;100094.54;1487402;87;22468;-85
2023/05/23 02:47:52;;;;;;;7.13;4.57;;;;;;;12.22;90.44;100092.54;1483931;87;21469;-82
2023/05/23 02:50:18;;;;;;;8.20;4.87;;;;;;;12.15;91.65;100089.23;1491144;87;21308;-84
2023/05/23 02:52:44;;;;;;;7.43;4.50;;;;;;;12.09;91.79;100095.20;1464661;87;22301;-85
2023/05/23 02:55:11;;;;;;;8.47;4.27;;;;;;;12.05;91.91;100093.86;1480763;87;21351;-84
2023/05/23 02:57:37;;;;;;;9.43;5.17;;;;;;;12.04;92.74;100092.71;1484885;87;21351;-86
2023/05/23 03:00:04;;;;;;;8.20;5.77;;;;;;;12.04;92.07;100094.03;1487470;87;21271;-82
2023/05/23 03:02:30;;;;;;;13.17;5.40;;;;;;;12.05;92.60;100090.38;1486072;87;22299;-82
2023/05/23 03:04:56;;;;;;;7.47;5.17;;;;;;;12.06;91.96;100088.08;1486451;87;21440;-83
2023/05/23 03:07:22;;;;;;;6.63;4.70;;;;;;;12.07;93.13;100085.75;1481695;87;21396;-84
2023/05/23 03:09:48;;;;;;;9.20;4.87;;;;;;;12.08;93.36;100093.52;1495208;87;21338;-82
2023/05/23 03:12:15;;;;;;;8.77;4.97;;;;;;;12.06;94.08;100089.41;1489643;87;21426;-82
2023/05/23 03:14:41;;;;;;;15.20;5.30;;;;;;;12.04;92.94;100086.91;1487616;87;21521;-83
2023/05/23 03:17:07;;;;;;;5.60;5.00;;;;;;;12.03;94.53;100079.95;1490431;87;22173;-83
2023/05/23 03:19:33;;;;;;;6.90;5.20;;;;;;;12.04;94.60;100075.47;1491276;87;22537;-86
2023/05/23 03:22:00;;;;;;;8.57;5.27;;;;;;;12.09;93.71;100073.98;1472938;87;21993;-84
2023/05/23 03:24:26;;;;;;;9.20;4.80;;;;;;;12.18;94.16;100077.45;1486331;87;21300;-87
2023/05/23 03:26:52;;;;;;;10.00;4.80;;;;;;;12.26;92.97;100072.66;1489141;87;21560;-88
2023/05/23 03:29:18;;;;;;;8.73;5.50;;;;;;;12.32;92.57;100075.46;1491440;87;22210;-89
2023/05/23 03:31:44;;;;;;;6.83;5.33;;;;;;;12.32;93.51;100083.42;1484908;87;21388;-90
2023/05/23 03:34:11;;;;;;;9.90;5.67;;;;;;;12.32;92.93;100088.73;1484267;87;21476;-87
2023/05/23 03:36:38;;;;;;;7.40;4.60;;;;;;;12.33;92.85;100082.92;1438374;89;22846;-88
2023/05/23 03:39:05;;;;;;;6.43;4.40;;;;;;;12.37;92.86;100086.88;1467122;89;21602;-89
2023/05/23 03:41:31;;;;;;;6.80;4.73;;;;;;;12.40;92.70;100087.91;1444525;91;21360;-88
2023/05/23 03:43:57;;;;;;;6.77;4.97;;;;;;;12.46;93.08;100080.59;1485864;87;22245;-88
2023/05/23 03:46:23;;;;;;;7.07;4.80;;;;;;;12.52;93.09;100079.91;1493319;87;21499;-88
2023/05/23 03:48:50;;;;;;;11.03;5.83;;;;;;;12.59;92.86;100082.72;1488611;87;21359;-85
2023/05/23 03:51:16;;;;;;;8.83;5.10;;;;;;;12.70;92.43;100081.54;1486649;87;21440;-87
2023/05/23 03:53:43;;;;;;;14.67;5.50;;;;;;;12.78;92.21;100080.20;1495072;87;21337;-82
2023/05/23 03:56:09;;;;;;;9.53;5.47;;;;;;;12.87;91.89;100083.14;1490247;87;21329;-86
2023/05/23 03:58:35;;;;;;;13.97;6.60;;;;;;;12.94;91.89;100081.45;1491146;87;22305;-86
2023/05/23 04:01:01;;;;;;;10.33;5.60;;;;;;;13.00;91.81;100072.79;1479209;87;21314;-85
2023/05/23 04:03:31;;;;;;;16.77;6.97;;;;;;;13.06;91.62;100068.14;1488728;87;21337;-84
2023/05/23 04:06:01;;;;;;;12.10;6.33;;;;;;;13.16;91.46;100071.09;1490113;87;22238;-85
2023/05/23 04:08:28;;;;;;;15.13;8.35;;;;;;;13.25;91.40;100072.70;1487298;87;21469;-84
2023/05/23 04:10:54;;;;;;;14.87;8.00;;;;;;;13.35;91.19;100069.38;1491629;87;21366;-85
2023/05/23 04:13:22;;;;;;;17.60;8.93;;;;;;;13.42;90.81;100074.30;1488659;87;21433;-85
2023/05/23 04:15:48;;;;;;;14.93;9.70;;;;;;;13.50;90.37;100078.75;1487376;87;21425;-86
2023/05/23 04:18:16;;;;;;;25.53;10.93;;;;;;;13.59;90.01;100077.70;1482994;87;21396;-85
2023/05/23 04:20:42;;;;;;;35.40;12.10;;;;;;;13.67;89.40;100067.02;1497816;87;21565;-85
2023/05/23 04:23:08;;;;;;;30.80;13.73;;;;;;;13.76;89.13;100071.27;1490459;87;22225;-85
2023/05/23 04:25:34;;;;;;;22.53;10.10;;;;;;;13.86;88.80;100071.53;1464759;87;21456;-86
2023/05/23 04:28:01;;;;;;;21.97;9.53;;;;;;;13.96;88.35;100078.78;1458648;89;21375;-85
2023/05/23 04:30:29;;;;;;;26.23;10.17;;;;;;;14.08;88.35;100076.53;1452718;89;22292;-88
2023/05/23 04:32:57;;;;;;;17.63;8.40;;;;;;;14.20;88.10;100077.75;1425702;89;22293;-87
2023/05/23 04:35:23;;;;;;;22.67;10.47;;;;;;;14.30;87.80;100081.48;1461375;89;21331;-87
2023/05/23 04:37:49;;;;;;;16.10;8.33;;;;;;;14.40;86.98;100073.56;1460875;89;21613;-83
2023/05/23 04:40:15;;;;;;;13.93;8.83;;;;;;;14.51;86.56;100078.14;1437740;91;21398;-84
2023/05/23 04:42:43;;;;;;;17.73;9.20;;;;;;;14.59;86.39;100072.77;1489119;87;21388;-87
2023/05/23 04:45:10;;;;;;;15.77;8.27;;;;;;;14.68;85.46;100074.84;1470887;87;21388;-86
2023/05/23 04:47:36;;;;;;;19.87;9.07;;;;;;;14.77;84.90;100075.89;1489891;87;21381;-84
2023/05/23 04:50:03;;;;;;;13.57;8.63;;;;;;;14.85;83.53;100073.66;1495324;87;21301;-87
2023/05/23 04:52:32;;;;;;;9.43;7.27;;;;;;;14.93;83.27;100076.20;1494851;87;21382;-86
2023/05/23 04:54:57;;;;;;;16.03;7.93;;;;;;;15.00;82.13;100069.64;1483289;87;21477;-86
2023/05/23 04:57:23;;;;;;;18.83;7.37;;;;;;;15.09;81.75;100064.53;1475779;87;21514;-85
2023/05/23 04:59:49;;;;;;;11.53;7.60;;;;;;;15.19;80.88;100064.23;1490022;87;21403;-87
2023/05/23 05:02:15;;;;;;;19.40;8.80;;;;;;;15.29;80.24;100064.77;1493287;87;21532;-87
2023/05/23 05:04:41;;;;;;;17.07;7.97;;;;;;;15.34;79.23;100064.53;1485861;87;21381;-87
2023/05/23 05:07:07;;;;;;;11.50;7.67;;;;;;;15.43;79.03;100068.42;1489997;87;21639;-86
2023/05/23 05:09:40;;;;;;;13.47;7.63;;;;;;;15.53;78.54;100072.94;1489448;87;21307;-87
2023/05/23 05:12:06;;;;;;;14.10;8.00;;;;;;;15.61;78.22;100068.82;1485490;87;21530;-87
2023/05/23 05:14:33;;;;;;;12.33;7.03;;;;;;;15.66;76.79;100066.42;1490311;87;22349;-87
2023/05/23 05:17:01;;;;;;;16.10;7.57;;;;;;;15.70;75.54;100063.71;1490959;87;21470;-87
2023/05/23 05:19:27;;;;;;;14.03;7.37;;;;;;;15.78;75.51;100059.59;1494563;87;21330;-87
2023/05/23 05:21:53;;;;;;;13.20;6.93;;;;;;;15.91;75.52;100063.39;1485737;87;21381;-87
2023/05/23 05:24:26;;;;;;;10.17;7.10;;;;;;;15.99;74.26;100065.94;1468856;87;21395;-88
2023/05/23 05:26:54;;;;;;;11.90;7.67;;;;;;;16.09;74.75;100063.78;1487236;87;21470;-87
2023/05/23 05:29:20;;;;;;;11.33;8.17;;;;;;;16.18;73.71;100065.28;1486056;87;21381;-87
2023/05/23 05:31:46;;;;;;;15.30;6.83;;;;;;;16.20;72.03;100062.44;1489268;87;22365;-86
2023/05/23 05:34:12;;;;;;;20.77;7.23;;;;;;;16.30;72.88;100060.76;1490462;87;21455;-85
2023/05/23 05:36:45;;;;;;;13.27;6.53;;;;;;;16.43;73.15;100067.55;1490583;87;22268;-88
2023/05/23 05:39:25;;;;;;;12.23;7.40;;;;;;;16.55;72.92;100068.65;1482462;87;21501;-86
2023/05/23 05:42:00;;;;;;;12.13;7.60;;;;;;;16.69;72.66;100074.91;1480467;87;21381;-87
2023/05/23 05:44:25;;;;;;;10.87;6.63;;;;;;;16.83;71.84;100071.33;1488657;87;21583;-88
2023/05/23 05:46:52;;;;;;;16.13;7.40;;;;;;;16.91;70.74;100064.98;1486113;87;21456;-84
2023/05/23 05:49:18;;;;;;;13.00;7.67;;;;;;;17.05;71.56;100071.22;1467017;87;21330;-87
2023/05/23 05:51:44;;;;;;;15.27;7.10;;;;;;;17.19;70.95;100069.44;1487319;87;21410;-86
2023/05/23 05:54:10;;;;;;;15.53;6.70;;;;;;;17.27;70.55;100067.41;1491037;87;21308;-87
2023/05/23 05:56:36;;;;;;;15.67;7.30;;;;;;;17.33;69.52;100067.13;1488043;87;22320;-87
2023/05/23 05:59:02;;;;;;;11.80;7.97;;;;;;;17.44;70.12;100067.89;1466697;87;21470;-87
2023/05/23 06:01:29;;;;;;;11.90;6.53;;;;;;;17.43;68.49;100068.08;1490637;87;21440;-86
2023/05/23 06:03:57;;;;;;;11.40;8.10;;;;;;;17.50;69.36;100068.94;1492281;87;21380;-87
2023/05/23 06:06:23;;;;;;;14.63;7.87;;;;;;;17.57;69.18;100074.59;1458277;87;21256;-85
2023/05/23 06:08:49;;;;;;;16.63;7.10;;;;;;;17.76;69.89;100069.52;1477417;87;21368;-89
2023/05/23 06:11:15;;;;;;;10.37;7.17;;;;;;;17.90;69.26;100074.41;1477094;87;21294;-87
2023/05/23 06:13:42;;;;;;;20.63;7.10;;;;;;;18.02;69.24;100077.60;1461744;87;21329;-88
2023/05/23 06:16:09;;;;;;;9.53;6.77;;;;;;;18.20;69.11;100085.54;1498028;87;21433;-85
2023/05/23 06:18:36;;;;;;;14.60;8.20;;;;;;;18.35;68.90;100087.48;1492190;87;21396;-84
2023/05/23 06:21:02;;;;;;;9.77;7.07;;;;;;;18.53;67.43;100084.69;1484475;87;21522;-80
2023/05/23 06:23:30;;;;;;;12.23;7.23;;;;;;;18.66;68.30;100084.69;1530800;87;21330;-82
2023/05/23 06:25:59;;;;;;;11.30;7.83;;;;;;;18.83;68.52;100083.23;1484038;87;21374;-80
2023/05/23 06:28:25;;;;;;;13.78;7.37;;;;;;;19.01;68.39;100085.25;1484782;87;21531;-87
2023/05/23 06:30:53;;;;;;;16.32;7.58;;;;;;;19.20;68.05;100088.09;1486221;87;21573;-87
2023/05/23 06:33:19;;;;;;;15.95;7.67;;;;;;;19.29;67.35;100087.63;1487984;87;21388;-84
2023/05/23 06:35:45;;;;;;;10.63;8.08;;;;;;;19.36;66.26;100089.78;1466833;87;21440;-86
2023/05/23 06:38:12;;;;;;;11.33;6.58;;;;;;;19.43;66.14;100082.21;1485998;87;21572;-85
2023/05/23 06:40:38;;;;;;;10.93;6.75;;;;;;;19.56;66.33;100087.00;1410199;87;21308;-84
2023/05/23 06:43:04;;;;;;;18.82;7.80;;;;;;;19.63;65.73;100086.95;1410584;87;22233;-86
2023/05/23 06:45:33;;;;;;;11.60;7.83;;;;;;;19.72;65.86;100089.72;1565405;87;22327;-87
2023/05/23 06:48:00;;;;;;;10.88;7.20;;;;;;;19.83;65.91;100090.38;1408992;87;21292;-87
2023/05/23 06:50:26;;;;;;;15.88;7.10;;;;;;;19.97;65.75;100089.77;1407133;87;22165;-85
2023/05/23 06:52:52;;;;;;;17.10;6.85;;;;;;;20.12;65.26;100086.77;1410880;87;21324;-87
2023/05/23 06:55:19;;;;;;;20.57;6.62;;;;;;;20.14;64.38;100087.38;1416878;87;21292;-88
2023/05/23 06:57:46;;;;;;;14.50;7.08;;;;;;;20.23;64.64;100088.75;1434890;87;22363;-87
2023/05/23 07:00:13;;;;;;;11.33;6.70;;;;;;;20.28;63.27;100091.61;1484403;87;21351;-86
2023/05/23 07:02:40;;;;;;;18.20;7.35;;;;;;;20.45;64.00;100092.38;1487711;87;22396;-87
2023/05/23 07:05:07;;;;;;;14.45;7.12;;;;;;;20.63;63.57;100091.12;1488803;87;21402;-87
2023/05/23 07:07:33;;;;;;;13.05;7.10;;;;;;;20.70;62.49;100093.20;1488374;87;22408;-86
2023/05/23 07:09:59;;;;;;;19.60;7.30;;;;;;;20.82;61.95;100091.94;1489154;87;21329;-86
2023/05/23 07:12:25;;;;;;;23.65;7.42;;;;;;;20.95;61.76;100091.00;1484216;87;21514;-87
2023/05/23 07:14:51;;;;;;;16.60;7.10;;;;;;;21.08;61.99;100089.48;1490141;87;21425;-88
2023/05/23 07:17:18;;;;;;;18.10;8.33;;;;;;;21.15;61.27;100088.89;1488722;87;21314;-89
2023/05/23 07:19:45;;;;;;;12.30;6.30;;;;;;;21.18;59.22;100087.63;1482008;87;21499;-78
2023/05/23 07:22:12;;;;;;;16.20;7.28;;;;;;;21.31;60.83;100086.62;1487470;87;21521;-79
2023/05/23 07:24:42;;;;;;;10.78;6.47;;;;;;;21.39;60.15;100082.31;1490948;87;21594;-78
2023/05/23 07:27:08;;;;;;;10.00;5.92;;;;;;;21.52;58.94;100083.50;1484469;87;22320;-78
2023/05/23 07:29:36;;;;;;;12.63;6.92;;;;;;;21.62;59.67;100082.41;1487707;87;21580;-77
2023/05/23 07:32:02;;;;;;;13.70;6.33;;;;;;;21.70;58.21;100084.50;1487184;87;21367;-79
2023/05/23 07:34:38;;;;;;;11.68;7.17;;;;;;;21.75;58.79;100081.92;1488369;87;21521;-76
2023/05/23 07:37:04;;;;;;;18.20;6.90;;;;;;;21.80;58.00;100079.36;1489410;87;21522;-79
2023/05/23 07:39:30;;;;;;;14.15;6.83;;;;;;;21.95;58.43;100083.82;1488659;87;22209;-79
2023/05/23 07:41:57;;;;;;;17.80;7.17;;;;;;;22.06;58.69;100073.56;1440199;89;21377;-79
2023/05/23 07:44:23;;;;;;;13.05;7.55;;;;;;;22.10;56.61;100068.55;1446832;89;21361;-79
2023/05/23 07:46:49;;;;;;;18.55;8.15;;;;;;;22.28;57.63;100077.91;1436654;91;21432;-80
2023/05/23 07:49:16;;;;;;;21.80;6.72;;;;;;;22.28;57.63;100077.91;1495028;87;21323;-84
2023/05/23 07:51:42;;;;;;;16.23;7.55;;;;;;;22.36;57.58;100071.90;1494299;87;22339;-81
2023/05/23 07:54:08;;;;;;;18.67;7.12;;;;;;;22.39;57.21;100075.47;1489015;87;21374;-82
2023/05/23 07:56:37;;;;;;;19.00;7.42;;;;;;;22.59;57.47;100076.47;1488219;87;21329;-82
2023/05/23 07:59:02;;;;;;;26.55;7.58;;;;;;;22.75;56.91;100073.04;1499914;87;21520;-82
2023/05/23 08:01:28;;;;;;;12.40;6.72;;;;;;;22.85;56.38;100069.23;1489073;87;21390;-84
2023/05/23 08:03:54;;;;;;;15.60;8.13;;;;;;;23.02;56.99;100071.20;1488065;87;21396;-83
2023/05/23 08:06:20;;;;;;;17.92;6.75;;;;;;;23.20;56.81;100067.82;1487939;87;21602;-81
2023/05/23 08:08:47;;;;;;;15.23;7.37;;;;;;;23.36;56.95;100071.66;1490561;87;22313;-83
2023/05/23 08:11:14;;;;;;;14.60;7.45;;;;;;;23.47;55.59;100069.95;1492398;87;21292;-83
2023/05/23 08:13:40;;;;;;;17.07;7.17;;;;;;;23.57;56.06;100078.80;1459330;87;21366;-81
2023/05/23 08:16:06;;;;;;;12.70;7.17;;;;;;;23.73;56.80;100065.86;1486621;87;22274;-81
2023/05/23 08:18:32;;;;;;;16.85;7.03;;;;;;;23.92;57.30;100069.18;1481654;87;21456;-81
2023/05/23 08:21:01;;;;;;;8.38;6.17;;;;;;;24.12;57.35;100068.70;1487127;87;21433;-81
2023/05/23 08:23:27;;;;;;;9.65;6.67;;;;;;;24.29;56.83;100063.30;1464757;87;21602;-81
2023/05/23 08:25:56;;;;;;;13.98;6.47;;;;;;;24.44;56.27;100061.38;1492076;87;21816;-79
2023/05/23 08:28:22;;;;;;;12.78;6.47;;;;;;;24.45;55.91;100063.01;1483727;87;21537;-81
2023/05/23 08:30:48;;;;;;;8.48;6.42;;;;;;;24.56;55.74;100061.28;1467943;87;21477;-82
2023/05/23 08:33:14;;;;;;;13.68;7.12;;;;;;;24.61;55.08;100066.23;1485425;87;21388;-81
2023/05/23 08:35:41;;;;;;;19.12;7.15;;;;;;;24.65;54.83;100063.30;1482467;87;21388;-81
2023/05/23 08:38:08;;;;;;;11.50;6.55;;;;;;;24.74;54.76;100068.59;1492564;87;21477;-81
2023/05/23 08:40:36;;;;;;;13.70;7.87;;;;;;;24.83;54.72;100066.78;1484982;87;21352;-81
2023/05/23 08:43:02;;;;;;;7.10;5.53;;;;;;;24.87;54.68;100065.23;1487010;87;21477;-82
2023/05/23 08:45:29;;;;;;;17.62;6.30;;;;;;;24.96;54.65;100062.36;1483118;87;21395;-80
2023/05/23 08:47:58;;;;;;;12.80;6.60;;;;;;;25.05;54.49;100055.44;1490285;87;21469;-81
2023/05/23 08:50:27;;;;;;;10.55;6.97;;;;;;;24.97;53.88;100059.42;1482222;87;21389;-80
2023/05/23 08:52:58;;;;;;;9.60;5.15;;;;;;;25.03;54.32;100057.59;1412645;87;21477;-81
2023/05/23 08:55:27;;;;;;;8.90;5.87;;;;;;;25.15;54.39;100061.02;1573821;87;22101;-80
2023/05/23 08:57:58;;;;;;;8.98;5.83;;;;;;;25.34;54.71;100057.97;1413662;87;21550;-81
2023/05/23 09:00:26;;;;;;;11.22;6.10;;;;;;;25.51;54.58;100056.52;1573979;87;21138;-80
2023/05/23 09:02:53;;;;;;;16.10;7.17;;;;;;;25.44;54.57;100055.38;1407723;87;22092;-81
2023/05/23 09:05:20;;;;;;;10.78;6.20;;;;;;;25.35;54.00;100048.78;1413774;87;21363;-81
2023/05/23 09:07:47;;;;;;;18.62;6.08;;;;;;;25.42;54.72;100052.09;1406818;87;21301;-81
2023/05/23 09:10:21;;;;;;;19.12;6.08;;;;;;;25.54;54.52;100047.34;1409174;87;21308;-80
2023/05/23 09:12:48;;;;;;;9.75;5.08;;;;;;;25.69;54.58;100045.86;1573790;87;21183;-81
2023/05/23 09:15:15;;;;;;;6.12;5.40;;;;;;;25.82;54.35;100050.86;1396890;87;21338;-81
2023/05/23 09:17:43;;;;;;;14.10;5.30;;;;;;;25.97;54.76;100051.02;1573809;87;21431;-81
2023/05/23 09:20:15;;;;;;;7.58;5.05;;;;;;;26.11;54.50;100051.41;1486220;87;21418;-81
2023/05/23 09:22:46;;;;;;;11.88;5.22;;;;;;;26.24;54.28;100048.77;1407250;87;21249;-81
2023/05/23 09:25:13;;;;;;;11.60;5.37;;;;;;;26.36;53.09;100050.78;1544164;87;21285;-81
2023/05/23 09:27:40;;;;;;;6.58;4.70;;;;;;;26.35;53.29;100042.34;1410037;87;21248;-82
2023/05/23 09:30:11;;;;;;;12.33;5.72;;;;;;;26.24;53.57;100044.70;1410524;87;21471;-82
2023/05/23 09:32:37;;;;;;;7.97;5.25;;;;;;;26.41;54.17;100040.48;1573807;87;21198;-81
2023/05/23 09:35:06;;;;;;;18.15;5.70;;;;;;;26.60;53.96;100043.63;1416505;87;21463;-83
2023/05/23 09:37:45;;;;;;;8.68;4.10;;;;;;;26.83;53.50;100047.27;1407472;87;21300;-80
2023/05/23 09:40:15;;;;;;;5.57;4.33;;;;;;;26.89;50.50;100045.39;1409773;87;22137;-82
2023/05/23 09:42:45;;;;;;;7.15;4.80;;;;;;;26.91;49.23;100044.59;1410035;87;21257;-81
2023/05/23 09:45:13;;;;;;;;;;;;;;;27.02;49.14;100042.20;1414584;87;22239;-81
2023/05/23 09:47:52;;;;;;;12.68;4.83;;;;;;;27.08;49.48;100047.11;1503312;87;20327;-80
2023/05/23 09:50:20;;;;;;;13.30;4.03;;;;;;;27.12;48.82;100035.98;1384040;90;21349;-81
2023/05/23 09:52:46;;;;;;;8.20;4.40;;;;;;;27.18;48.60;100037.11;1387172;89;22081;-80
2023/05/23 09:55:13;;;;;;;11.12;4.33;;;;;;;27.29;48.10;100038.51;1367287;90;21431;-81
2023/05/23 09:57:42;;;;;;;12.37;3.67;;;;;;;27.39;47.90;100036.64;1447366;89;21448;-82
2023/05/23 10:00:17;;;;;;;11.15;4.25;;;;;;;27.35;46.73;100036.08;1465240;89;21421;-82
2023/05/23 10:03:13;;;;;;;7.58;4.03;;;;;;;27.06;46.87;100031.62;1462498;89;21479;-80
2023/05/23 10:05:49;;;;;;;9.93;3.60;;;;;;;26.86;47.27;100026.38;1460166;89;21546;-81
2023/05/23 10:08:30;;;;;;;8.78;4.72;;;;;;;27.01;47.30;100018.28;1462572;89;21384;-81
2023/05/23 10:11:15;;;;;;;7.67;4.28;;;;;;;27.21;46.97;100020.27;1456103;89;21606;-81
2023/05/23 10:13:50;;;;;;;10.95;4.25;;;;;;;27.45;46.71;100020.62;1461616;89;21340;-82
2023/05/23 10:16:30;;;;;;;12.95;3.87;;;;;;;27.57;46.14;100008.68;1454078;89;21414;-81
2023/05/23 10:19:02;;;;;;;9.93;4.20;;;;;;;27.29;45.58;100011.34;1462243;89;21377;-81
2023/05/23 10:21:54;;;;;;;8.53;4.03;;;;;;;27.16;45.59;100009.94;1463240;89;21377;-81
2023/05/23 10:24:21;;;;;;;8.18;3.85;;;;;;;27.13;45.32;100013.16;1467837;89;21339;-79
2023/05/23 10:26:48;;;;;;;8.35;4.25;;;;;;;26.82;45.82;100005.47;1473930;87;21345;-80
2023/05/23 10:29:14;;;;;;;7.90;3.85;;;;;;;26.65;46.55;100002.95;1453099;89;21397;-80
2023/05/23 10:31:47;;;;;;;8.30;4.08;;;;;;;26.76;46.69;99996.48;1466292;87;22030;-78
2023/05/23 10:34:31;;;;;;;13.90;3.92;;;;;;;27.10;46.20;99993.33;1469870;87;21356;-77
2023/05/23 10:37:06;;;;;;;4.15;3.27;;;;;;;27.42;45.71;99999.97;1476081;88;21407;-79
2023/05/23 10:39:56;;;;;;;7.20;3.12;;;;;;;27.70;42.12;99989.64;1463567;88;21383;-79
2023/05/23 10:42:48;;;;;;;9.98;3.40;;;;;;;27.74;40.04;99994.83;1470210;88;21441;-78
2023/05/23 10:45:21;;;;;;;5.58;3.47;;;;;;;28.05;40.21;99986.11;1466818;89;21362;-79
2023/05/23 10:47:51;;;;;;;5.30;2.98;;;;;;;28.04;39.96;99985.30;1491030;86;21294;-80
2023/05/23 10:50:38;;;;;;;5.17;3.30;;;;;;;27.89;39.55;99979.89;1469292;87;21478;-80
2023/05/23 10:53:05;;;;;;;11.60;4.35;;;;;;;27.75;39.10;99980.95;1459883;88;21478;-82
2023/05/23 10:55:35;;;;;;;5.72;3.15;;;;;;;27.38;39.28;99968.42;1499016;86;21504;-82
2023/05/23 10:58:21;;;;;;;6.87;3.45;;;;;;;27.26;39.79;99973.30;1491052;86;21397;-82
2023/05/23 11:00:54;;;;;;;6.17;3.08;;;;;;;27.55;39.84;99960.02;1509521;86;21345;-80
2023/05/23 11:03:50;;;;;;;6.22;3.20;;;;;;;27.97;39.75;99959.50;1486467;87;21344;-79
2023/05/23 11:06:43;;;;;;;6.40;3.42;;;;;;;28.32;38.64;99952.60;1459434;88;21469;-81
2023/05/23 11:09:18;;;;;;;5.40;3.08;;;;;;;28.25;37.18;99956.70;1442593;89;21413;-79
2023/05/23 11:11:56;;;;;;;7.25;3.10;;;;;;;28.07;36.51;99948.58;1380767;88;22757;-80
2023/05/23 11:14:37;;;;;;;5.20;3.33;;;;;;;27.95;37.75;99948.88;1561147;88;22552;-81
2023/05/23 11:17:18;;;;;;;11.55;3.40;;;;;;;28.08;37.80;99948.84;1408616;88;21336;-80
2023/05/23 11:20:08;;;;;;;5.70;3.60;;;;;;;28.23;38.25;99942.58;1573397;86;22543;-79
2023/05/23 11:22:33;;;;;;;13.40;3.47;;;;;;;27.90;38.24;99938.81;1413389;87;21264;-81
2023/05/23 11:25:02;;;;;;;5.40;3.05;;;;;;;27.48;36.81;99936.90;1566216;86;21271;-80
2023/05/23 11:27:36;;;;;;;9.33;3.77;;;;;;;27.27;37.77;99935.53;1413602;89;21331;-78
2023/05/23 11:30:12;;;;;;;8.40;3.60;;;;;;;27.07;37.88;99934.11;1590676;86;21315;-82